sensor_id;sensor_type;location;lat;lon;timestamp;pressure;altitude;pressure_sealevel;temperature;humidity
44079;BME280;29744;49.078;12.878;2023-04-28T00:03:08;96505.13;;;14.94;37.00
44079;BME280;29744;49.078;12.878;2023-04-28T00:08:09;96497.34;;;14.93;36.82
44079;BME280;29744;49.078;12.878;2023-04-28T00:13:10;96490.38;;;14.92;37.40
44079;BME280;29744;49.078;12.878;2023-04-28T00:18:10;96486.88;;;14.91;37.38
44079;BME280;29744;49.078;12.878;2023-04-28T00:23:10;96478.31;;;14.89;37.00
44079;BME280;29744;49.078;12.878;2023-04-28T00:28:11;96477.50;;;14.89;37.37
44079;BME280;29744;49.078;12.878;2023-04-28T00:33:11;96471.31;;;14.88;36.80
44079;BME280;29744;49.078;12.878;2023-04-28T00:38:12;96472.44;;;14.87;37.03
44079;BME280;29744;49.078;12.878;2023-04-28T00:43:12;96460.06;;;14.86;37.07
44079;BME280;29744;49.078;12.878;2023-04-28T00:48:13;96463.06;;;14.85;37.21
44079;BME280;29744;49.078;12.878;2023-04-28T00:53:13;96464.19;;;14.83;36.86
44079;BME280;29744;49.078;12.878;2023-04-28T00:58:13;96459.91;;;14.82;37.16
44079;BME280;29744;49.078;12.878;2023-04-28T01:03:14;96463.41;;;14.83;37.19
44079;BME280;29744;49.078;12.878;2023-04-28T01:08:14;96461.03;;;14.81;37.50
44079;BME280;29744;49.078;12.878;2023-04-28T01:13:15;96461.03;;;14.81;37.14
44079;BME280;29744;49.078;12.878;2023-04-28T01:18:15;96458.66;;;14.80;37.08
44079;BME280;29744;49.078;12.878;2023-04-28T01:23:16;96457.84;;;14.79;37.11
44079;BME280;29744;49.078;12.878;2023-04-28T01:28:16;96460.09;;;14.77;37.34
44079;BME280;29744;49.078;12.878;2023-04-28T01:33:17;96450.09;;;14.78;37.34
44079;BME280;29744;49.078;12.878;2023-04-28T01:38:17;96443.09;;;14.77;37.12
44079;BME280;29744;49.078;12.878;2023-04-28T01:43:17;96436.13;;;14.76;37.17
44079;BME280;29744;49.078;12.878;2023-04-28T01:48:18;96438.81;;;14.76;37.13
44079;BME280;29744;49.078;12.878;2023-04-28T01:53:18;96435.31;;;14.75;37.67
44079;BME280;29744;49.078;12.878;2023-04-28T01:58:19;96439.13;;;14.74;37.29
44079;BME280;29744;49.078;12.878;2023-04-28T02:03:20;96445.66;;;14.73;37.43
44079;BME280;29744;49.078;12.878;2023-04-28T02:08:20;96442.97;;;14.73;37.53
44079;BME280;29744;49.078;12.878;2023-04-28T02:13:20;96435.19;;;14.72;37.37
44079;BME280;29744;49.078;12.878;2023-04-28T02:18:21;96431.69;;;14.71;37.12
44079;BME280;29744;49.078;12.878;2023-04-28T02:23:21;96434.38;;;14.71;37.42
44079;BME280;29744;49.078;12.878;2023-04-28T02:28:21;96422.00;;;14.70;37.30
44079;BME280;29744;49.078;12.878;2023-04-28T02:33:21;96428.53;;;14.69;37.06
44079;BME280;29744;49.078;12.878;2023-04-28T02:38:22;96433.91;;;14.69;37.36
44079;BME280;29744;49.078;12.878;2023-04-28T02:43:22;96417.25;;;14.67;37.21
44079;BME280;29744;49.078;12.878;2023-04-28T02:48:23;96394.88;;;14.67;37.59
44079;BME280;29744;49.078;12.878;2023-04-28T02:53:23;96379.78;;;14.66;37.54
44079;BME280;29744;49.078;12.878;2023-04-28T02:58:24;96394.09;;;14.66;37.07
44079;BME280;29744;49.078;12.878;2023-04-28T03:03:24;96381.72;;;14.65;37.38
44079;BME280;29744;49.078;12.878;2023-04-28T03:08:24;96377.41;;;14.64;37.08
44079;BME280;29744;49.078;12.878;2023-04-28T03:13:25;96385.53;;;14.64;37.02
44079;BME280;29744;49.078;12.878;2023-04-28T03:18:25;96403.16;;;14.62;37.47
44079;BME280;29744;49.078;12.878;2023-04-28T03:23:26;96391.56;;;14.61;37.54
44079;BME280;29744;49.078;12.878;2023-04-28T03:28:26;96386.16;;;14.61;37.46
44079;BME280;29744;49.078;12.878;2023-04-28T03:33:27;96385.38;;;14.61;37.62
44079;BME280;29744;49.078;12.878;2023-04-28T03:38:27;96379.19;;;14.60;37.21
44079;BME280;29744;49.078;12.878;2023-04-28T03:43:27;96376.50;;;14.60;37.46
44079;BME280;29744;49.078;12.878;2023-04-28T03:48:27;96373.47;;;14.62;37.08
44079;BME280;29744;49.078;12.878;2023-04-28T03:53:28;96363.59;;;14.66;37.39
44079;BME280;29744;49.078;12.878;2023-04-28T03:58:28;96367.69;;;14.72;37.35
44079;BME280;29744;49.078;12.878;2023-04-28T04:03:28;96376.88;;;14.79;37.19
44079;BME280;29744;49.078;12.878;2023-04-28T04:08:29;96371.41;;;14.88;37.22
44079;BME280;29744;49.078;12.878;2023-04-28T04:13:29;96354.50;;;15.00;36.97
44079;BME280;29744;49.078;12.878;2023-04-28T04:18:30;96363.03;;;15.10;36.95
44079;BME280;29744;49.078;12.878;2023-04-28T04:23:30;96358.81;;;15.22;36.93
44079;BME280;29744;49.078;12.878;2023-04-28T04:28:31;96354.28;;;15.34;36.88
44079;BME280;29744;49.078;12.878;2023-04-28T04:33:31;96351.97;;;15.45;36.77
44079;BME280;29744;49.078;12.878;2023-04-28T04:38:33;96356.16;;;15.55;37.02
44079;BME280;29744;49.078;12.878;2023-04-28T04:43:33;96354.97;;;15.64;36.75
44079;BME280;29744;49.078;12.878;2023-04-28T04:48:34;96357.59;;;15.73;36.38
44079;BME280;29744;49.078;12.878;2023-04-28T04:53:34;96362.78;;;15.78;36.26
44079;BME280;29744;49.078;12.878;2023-04-28T04:58:35;96357.19;;;15.83;36.77
44079;BME280;29744;49.078;12.878;2023-04-28T05:03:35;96345.38;;;15.88;36.42
44079;BME280;29744;49.078;12.878;2023-04-28T05:08:35;96348.22;;;15.91;36.49
44079;BME280;29744;49.078;12.878;2023-04-28T05:13:36;96339.88;;;15.96;36.22
44079;BME280;29744;49.078;12.878;2023-04-28T05:18:36;96331.44;;;15.98;36.26
44079;BME280;29744;49.078;12.878;2023-04-28T05:23:36;96329.19;;;16.00;36.08
44079;BME280;29744;49.078;12.878;2023-04-28T05:28:38;96315.31;;;16.01;36.29
44079;BME280;29744;49.078;12.878;2023-04-28T05:33:39;96308.78;;;16.02;35.95
44079;BME280;29744;49.078;12.878;2023-04-28T05:38:40;96305.28;;;16.02;36.05
44079;BME280;29744;49.078;12.878;2023-04-28T05:43:40;96296.38;;;16.01;36.15
44079;BME280;29744;49.078;12.878;2023-04-28T05:48:40;96296.03;;;16.03;36.06
44079;BME280;29744;49.078;12.878;2023-04-28T05:53:41;96294.47;;;16.02;35.85
44079;BME280;29744;49.078;12.878;2023-04-28T05:58:41;96280.16;;;16.01;35.97
44079;BME280;29744;49.078;12.878;2023-04-28T06:03:44;96278.56;;;16.00;36.13
44079;BME280;29744;49.078;12.878;2023-04-28T06:08:44;96290.53;;;15.99;35.88
44079;BME280;29744;49.078;12.878;2023-04-28T06:13:48;96296.28;;;15.98;35.82
44079;BME280;29744;49.078;12.878;2023-04-28T06:18:48;96296.59;;;15.96;36.30
44079;BME280;29744;49.078;12.878;2023-04-28T06:23:48;96301.56;;;15.94;36.32
44079;BME280;29744;49.078;12.878;2023-04-28T06:28:49;96301.91;;;15.93;35.91
44079;BME280;29744;49.078;12.878;2023-04-28T06:33:50;96305.72;;;15.92;36.13
44079;BME280;29744;49.078;12.878;2023-04-28T06:38:50;96310.69;;;15.90;36.09
44079;BME280;29744;49.078;12.878;2023-04-28T06:43:51;96303.25;;;15.87;36.37
44079;BME280;29744;49.078;12.878;2023-04-28T06:48:51;96301.00;;;15.89;35.84
44079;BME280;29744;49.078;12.878;2023-04-28T06:53:51;96289.72;;;15.87;36.02
44079;BME280;29744;49.078;12.878;2023-04-28T06:58:54;96274.63;;;15.86;36.05
44079;BME280;29744;49.078;12.878;2023-04-28T07:03:54;96273.38;;;15.83;36.35
44079;BME280;29744;49.078;12.878;2023-04-28T07:08:55;96275.63;;;15.81;35.90
44079;BME280;29744;49.078;12.878;2023-04-28T07:13:55;96269.41;;;15.81;36.06
44079;BME280;29744;49.078;12.878;2023-04-28T07:18:55;96271.66;;;15.78;36.21
44079;BME280;29744;49.078;12.878;2023-04-28T07:23:56;96279.31;;;15.76;36.33
44079;BME280;29744;49.078;12.878;2023-04-28T07:28:56;96276.94;;;15.75;36.10
44079;BME280;29744;49.078;12.878;2023-04-28T07:33:56;96279.19;;;15.73;36.22
44079;BME280;29744;49.078;12.878;2023-04-28T07:38:59;96269.81;;;15.70;36.43
44079;BME280;29744;49.078;12.878;2023-04-28T07:43:59;96268.59;;;15.68;36.24
44079;BME280;29744;49.078;12.878;2023-04-28T07:49:00;96266.22;;;15.66;36.45
44079;BME280;29744;49.078;12.878;2023-04-28T07:54:00;96264.97;;;15.64;36.20
44079;BME280;29744;49.078;12.878;2023-04-28T07:59:00;96263.38;;;15.63;36.00
44079;BME280;29744;49.078;12.878;2023-04-28T08:04:00;96264.19;;;15.63;36.15
44079;BME280;29744;49.078;12.878;2023-04-28T08:09:01;96258.78;;;15.63;36.19
44079;BME280;29744;49.078;12.878;2023-04-28T08:14:01;96249.41;;;15.61;36.47
44079;BME280;29744;49.078;12.878;2023-04-28T08:19:02;96254.03;;;15.60;36.25
44079;BME280;29744;49.078;12.878;2023-04-28T08:24:02;96240.84;;;15.59;35.96
44079;BME280;29744;49.078;12.878;2023-04-28T08:29:05;96249.75;;;15.59;36.09
44079;BME280;29744;49.078;12.878;2023-04-28T08:34:05;96240.84;;;15.59;36.20
44079;BME280;29744;49.078;12.878;2023-04-28T08:39:06;96244.69;;;15.58;36.29
44079;BME280;29744;49.078;12.878;2023-04-28T08:44:08;96246.25;;;15.59;36.49
44079;BME280;29744;49.078;12.878;2023-04-28T08:49:15;96233.88;;;15.58;36.18
44079;BME280;29744;49.078;12.878;2023-04-28T08:54:16;96247.72;;;15.56;36.31
44079;BME280;29744;49.078;12.878;2023-04-28T08:59:17;96252.34;;;15.56;36.14
44079;BME280;29744;49.078;12.878;2023-04-28T09:04:18;96247.25;;;15.54;36.38
44079;BME280;29744;49.078;12.878;2023-04-28T09:14:22;96262.22;;;15.52;36.57
44079;BME280;29744;49.078;12.878;2023-04-28T09:19:23;96253.66;;;15.50;36.12
44079;BME280;29744;49.078;12.878;2023-04-28T09:24:37;96261.66;;;15.46;36.27
44079;BME280;29744;49.078;12.878;2023-04-28T09:29:51;96265.81;;;15.43;36.30
44079;BME280;29744;49.078;12.878;2023-04-28T09:34:53;96268.50;;;15.43;36.48
44079;BME280;29744;49.078;12.878;2023-04-28T09:39:57;96263.00;;;15.40;36.61
44079;BME280;29744;49.078;12.878;2023-04-28T09:44:57;96263.31;;;15.38;36.22
44079;BME280;29744;49.078;12.878;2023-04-28T09:49:59;96255.56;;;15.37;36.62
44079;BME280;29744;49.078;12.878;2023-04-28T09:55:04;96253.19;;;15.35;36.57
44079;BME280;29744;49.078;12.878;2023-04-28T10:00:06;96248.91;;;15.34;36.44
44079;BME280;29744;49.078;12.878;2023-04-28T10:05:08;96249.22;;;15.33;36.54
44079;BME280;29744;49.078;12.878;2023-04-28T10:10:09;96256.88;;;15.31;36.83
44079;BME280;29744;49.078;12.878;2023-04-28T10:15:11;96242.59;;;15.30;36.84
44079;BME280;29744;49.078;12.878;2023-04-28T10:20:14;96243.69;;;15.29;36.51
44079;BME280;29744;49.078;12.878;2023-04-28T10:25:30;96235.94;;;15.28;36.85
44079;BME280;29744;49.078;12.878;2023-04-28T10:30:31;96231.97;;;15.25;36.38
44079;BME280;29744;49.078;12.878;2023-04-28T10:40:35;96218.47;;;15.25;36.89
44079;BME280;29744;49.078;12.878;2023-04-28T10:56:04;96198.66;;;15.21;36.67
44079;BME280;29744;49.078;12.878;2023-04-28T11:11:24;96180.41;;;15.18;36.81
44079;BME280;29744;49.078;12.878;2023-04-28T11:16:25;96188.50;;;15.18;36.45
44079;BME280;29744;49.078;12.878;2023-04-28T11:21:25;96203.16;;;15.17;36.93
44079;BME280;29744;49.078;12.878;2023-04-28T11:26:27;96189.97;;;15.16;36.76
44079;BME280;29744;49.078;12.878;2023-04-28T11:31:27;96200.78;;;15.16;36.42
44079;BME280;29744;49.078;12.878;2023-04-28T11:36:38;96198.41;;;15.14;36.75
44079;BME280;29744;49.078;12.878;2023-04-28T11:41:39;96187.59;;;15.14;37.03
44079;BME280;29744;49.078;12.878;2023-04-28T11:46:47;96169.81;;;15.13;36.57
44079;BME280;29744;49.078;12.878;2023-04-28T11:51:51;96167.56;;;15.15;36.43
44079;BME280;29744;49.078;12.878;2023-04-28T11:56:53;96176.00;;;15.13;36.76
44079;BME280;29744;49.078;12.878;2023-04-28T12:01:56;96176.81;;;15.14;36.57
44079;BME280;29744;49.078;12.878;2023-04-28T12:12:27;96160.94;;;15.12;36.99
44079;BME280;29744;49.078;12.878;2023-04-28T12:17:30;96160.13;;;15.12;36.97
44079;BME280;29744;49.078;12.878;2023-04-28T12:22:51;96143.47;;;15.10;36.80
44079;BME280;29744;49.078;12.878;2023-04-28T12:27:59;96138.88;;;15.10;36.71
44079;BME280;29744;49.078;12.878;2023-04-28T12:33:01;96151.91;;;15.08;36.81
44079;BME280;29744;49.078;12.878;2023-04-28T12:38:01;96149.53;;;15.07;37.05
44079;BME280;29744;49.078;12.878;2023-04-28T12:43:01;96165.75;;;15.07;36.71
44079;BME280;29744;49.078;12.878;2023-04-28T12:48:02;96163.38;;;15.05;36.83
44079;BME280;29744;49.078;12.878;2023-04-28T12:53:02;96166.09;;;15.05;36.52
44079;BME280;29744;49.078;12.878;2023-04-28T12:58:02;96169.13;;;15.04;36.54
44079;BME280;29744;49.078;12.878;2023-04-28T13:03:03;96164.03;;;15.02;36.76
44079;BME280;29744;49.078;12.878;2023-04-28T13:08:03;96157.03;;;15.01;36.84
44079;BME280;29744;49.078;12.878;2023-04-28T13:13:04;96145.44;;;15.01;36.95
44079;BME280;29744;49.078;12.878;2023-04-28T13:18:04;96148.47;;;14.99;36.63
44079;BME280;29744;49.078;12.878;2023-04-28T13:23:04;96145.00;;;14.99;36.89
44079;BME280;29744;49.078;12.878;2023-04-28T13:28:05;96153.44;;;14.97;36.91
44079;BME280;29744;49.078;12.878;2023-04-28T13:33:05;96141.84;;;14.97;36.62
44079;BME280;29744;49.078;12.878;2023-04-28T13:38:06;96130.56;;;14.95;36.70
44079;BME280;29744;49.078;12.878;2023-04-28T13:43:06;96140.59;;;14.94;36.67
44079;BME280;29744;49.078;12.878;2023-04-28T13:48:06;96143.63;;;14.93;36.98
44079;BME280;29744;49.078;12.878;2023-04-28T13:53:07;96137.44;;;14.92;36.67
44079;BME280;29744;49.078;12.878;2023-04-28T13:58:07;96136.66;;;14.92;37.06
44079;BME280;29744;49.078;12.878;2023-04-28T14:03:08;96129.66;;;14.91;36.99
44079;BME280;29744;49.078;12.878;2023-04-28T14:08:08;96134.72;;;14.92;37.45
44079;BME280;29744;49.078;12.878;2023-04-28T14:13:09;96129.78;;;14.94;36.97
44079;BME280;29744;49.078;12.878;2023-04-28T14:18:10;96133.41;;;14.98;37.33
44079;BME280;29744;49.078;12.878;2023-04-28T14:23:10;96130.03;;;15.01;37.28
44079;BME280;29744;49.078;12.878;2023-04-28T14:28:11;96111.91;;;15.02;37.51
44079;BME280;29744;49.078;12.878;2023-04-28T14:33:11;96092.38;;;15.05;37.56
44079;BME280;29744;49.078;12.878;2023-04-28T14:38:12;96098.22;;;15.07;37.18
44079;BME280;29744;49.078;12.878;2023-04-28T14:43:12;96084.41;;;15.08;37.07
44079;BME280;29744;49.078;12.878;2023-04-28T14:48:13;96090.25;;;15.10;37.60
44079;BME280;29744;49.078;12.878;2023-04-28T14:53:14;96094.97;;;15.13;37.57
44079;BME280;29744;49.078;12.878;2023-04-28T14:58:14;96086.53;;;15.15;37.97
44079;BME280;29744;49.078;12.878;2023-04-28T15:03:15;96069.22;;;15.16;37.74
44079;BME280;29744;49.078;12.878;2023-04-28T15:08:15;96076.66;;;15.19;38.03
44079;BME280;29744;49.078;12.878;2023-04-28T15:13:15;96079.78;;;15.21;38.38
44079;BME280;29744;49.078;12.878;2023-04-28T15:18:16;96075.28;;;15.25;38.20
44079;BME280;29744;49.078;12.878;2023-04-28T15:23:17;96069.22;;;15.28;38.26
44079;BME280;29744;49.078;12.878;2023-04-28T15:28:18;96081.28;;;15.31;38.20
44079;BME280;29744;49.078;12.878;2023-04-28T15:33:19;96077.88;;;15.34;38.19
44079;BME280;29744;49.078;12.878;2023-04-28T15:38:19;96082.28;;;15.38;37.77
44079;BME280;29744;49.078;12.878;2023-04-28T15:43:19;96066.97;;;15.42;37.87
44079;BME280;29744;49.078;12.878;2023-04-28T15:48:19;96073.28;;;15.46;37.70
44079;BME280;29744;49.078;12.878;2023-04-28T15:53:20;96061.78;;;15.50;37.79
44079;BME280;29744;49.078;12.878;2023-04-28T15:58:21;96049.97;;;15.54;37.89
44079;BME280;29744;49.078;12.878;2023-04-28T16:03:22;96031.50;;;15.56;37.50
44079;BME280;29744;49.078;12.878;2023-04-28T16:08:22;96043.09;;;15.57;37.28
44079;BME280;29744;49.078;12.878;2023-04-28T16:13:26;96027.78;;;15.61;37.43
44079;BME280;29744;49.078;12.878;2023-04-28T16:18:30;96023.94;;;15.62;37.34
44079;BME280;29744;49.078;12.878;2023-04-28T16:23:30;96035.53;;;15.62;37.39
44079;BME280;29744;49.078;12.878;2023-04-28T16:28:31;96046.00;;;15.64;37.13
44079;BME280;29744;49.078;12.878;2023-04-28T16:33:31;96049.16;;;15.66;37.21
44079;BME280;29744;49.078;12.878;2023-04-28T16:38:32;96049.94;;;15.66;37.39
44079;BME280;29744;49.078;12.878;2023-04-28T16:43:32;96054.56;;;15.66;37.51
44079;BME280;29744;49.078;12.878;2023-04-28T16:48:35;96068.09;;;15.66;37.37
44079;BME280;29744;49.078;12.878;2023-04-28T16:53:35;96051.09;;;15.65;37.34
44079;BME280;29744;49.078;12.878;2023-04-28T16:58:35;96026.75;;;15.65;37.36
44079;BME280;29744;49.078;12.878;2023-04-28T17:03:35;96023.25;;;15.65;37.03
44079;BME280;29744;49.078;12.878;2023-04-28T17:08:40;96027.09;;;15.64;37.00
44079;BME280;29744;49.078;12.878;2023-04-28T17:13:41;96035.19;;;15.64;37.28
44079;BME280;29744;49.078;12.878;2023-04-28T17:18:41;96032.50;;;15.64;37.26
44079;BME280;29744;49.078;12.878;2023-04-28T17:23:42;96034.41;;;15.63;37.37
44079;BME280;29744;49.078;12.878;2023-04-28T17:28:42;96024.72;;;15.62;37.32
44079;BME280;29744;49.078;12.878;2023-04-28T17:33:43;96031.59;;;15.60;37.52
44079;BME280;29744;49.078;12.878;2023-04-28T17:38:43;96033.19;;;15.61;37.20
44079;BME280;29744;49.078;12.878;2023-04-28T17:43:43;96030.47;;;15.61;37.50
44079;BME280;29744;49.078;12.878;2023-04-28T17:48:44;96028.91;;;15.60;36.96
44079;BME280;29744;49.078;12.878;2023-04-28T17:53:45;96032.72;;;15.59;36.95
44079;BME280;29744;49.078;12.878;2023-04-28T17:58:47;96039.25;;;15.58;37.22
44079;BME280;29744;49.078;12.878;2023-04-28T18:03:47;96044.66;;;15.58;37.33
44079;BME280;29744;49.078;12.878;2023-04-28T18:08:48;96033.06;;;15.57;37.25
44079;BME280;29744;49.078;12.878;2023-04-28T18:13:48;96033.41;;;15.56;37.50
44079;BME280;29744;49.078;12.878;2023-04-28T18:18:49;96035.31;;;15.55;37.06
44079;BME280;29744;49.078;12.878;2023-04-28T18:23:49;96039.16;;;15.54;37.16
44079;BME280;29744;49.078;12.878;2023-04-28T18:28:50;96042.19;;;15.53;37.31
44079;BME280;29744;49.078;12.878;2023-04-28T18:33:50;96048.38;;;15.53;37.15
44079;BME280;29744;49.078;12.878;2023-04-28T18:38:51;96041.75;;;15.51;37.47
44079;BME280;29744;49.078;12.878;2023-04-28T18:43:51;96049.06;;;15.50;37.38
44079;BME280;29744;49.078;12.878;2023-04-28T18:48:54;96047.16;;;15.51;37.32
44079;BME280;29744;49.078;12.878;2023-04-28T18:53:54;96039.38;;;15.49;37.29
44079;BME280;29744;49.078;12.878;2023-04-28T18:58:55;96044.00;;;15.49;37.29
44079;BME280;29744;49.078;12.878;2023-04-28T19:03:55;96045.91;;;15.48;37.24
44079;BME280;29744;49.078;12.878;2023-04-28T19:08:55;96054.38;;;15.46;37.47
44079;BME280;29744;49.078;12.878;2023-04-28T19:13:56;96055.50;;;15.45;37.34
44079;BME280;29744;49.078;12.878;2023-04-28T19:18:57;96060.91;;;15.45;37.01
44079;BME280;29744;49.078;12.878;2023-04-28T19:23:57;96060.09;;;15.45;37.48
44079;BME280;29744;49.078;12.878;2023-04-28T19:28:57;96062.03;;;15.44;37.07
44079;BME280;29744;49.078;12.878;2023-04-28T19:33:57;96065.84;;;15.43;37.20
44079;BME280;29744;49.078;12.878;2023-04-28T19:38:58;96060.78;;;15.42;37.57
44079;BME280;29744;49.078;12.878;2023-04-28T19:43:58;96060.00;;;15.41;37.01
44079;BME280;29744;49.078;12.878;2023-04-28T19:48:58;96053.00;;;15.40;37.63
44079;BME280;29744;49.078;12.878;2023-04-28T19:53:59;96061.13;;;15.40;37.02
44079;BME280;29744;49.078;12.878;2023-04-28T19:58:59;96077.34;;;15.40;37.24
44079;BME280;29744;49.078;12.878;2023-04-28T20:03:59;96068.00;;;15.38;37.19
44079;BME280;29744;49.078;12.878;2023-04-28T20:09:00;96074.19;;;15.38;37.57
44079;BME280;29744;49.078;12.878;2023-04-28T20:14:01;96065.28;;;15.38;37.66
44079;BME280;29744;49.078;12.878;2023-04-28T20:19:01;96061.00;;;15.37;37.27
44079;BME280;29744;49.078;12.878;2023-04-28T20:24:01;96057.50;;;15.36;37.16
44079;BME280;29744;49.078;12.878;2023-04-28T20:29:02;96050.53;;;15.35;37.40
44079;BME280;29744;49.078;12.878;2023-04-28T20:34:02;96069.44;;;15.35;37.42
44079;BME280;29744;49.078;12.878;2023-04-28T20:39:03;96069.44;;;15.35;37.22
44079;BME280;29744;49.078;12.878;2023-04-28T20:49:13;96085.66;;;15.35;37.17
44079;BME280;29744;49.078;12.878;2023-04-28T20:54:14;96081.38;;;15.34;37.51
44079;BME280;29744;49.078;12.878;2023-04-28T20:59:14;96086.78;;;15.34;37.49
44079;BME280;29744;49.078;12.878;2023-04-28T21:04:14;96090.63;;;15.33;37.13
44079;BME280;29744;49.078;12.878;2023-04-28T21:09:15;96095.22;;;15.33;37.78
44079;BME280;29744;49.078;12.878;2023-04-28T21:14:15;96104.13;;;15.33;37.21
44079;BME280;29744;49.078;12.878;2023-04-28T21:19:15;96110.66;;;15.32;37.17
44079;BME280;29744;49.078;12.878;2023-04-28T21:24:16;96110.66;;;15.32;37.52
44079;BME280;29744;49.078;12.878;2023-04-28T21:29:16;96104.47;;;15.32;37.63
44079;BME280;29744;49.078;12.878;2023-04-28T21:34:17;96109.06;;;15.31;37.21
44079;BME280;29744;49.078;12.878;2023-04-28T21:39:17;96095.56;;;15.31;37.34
44079;BME280;29744;49.078;12.878;2023-04-28T21:44:18;96107.16;;;15.32;37.33
44079;BME280;29744;49.078;12.878;2023-04-28T21:49:18;96102.88;;;15.31;37.60
44079;BME280;29744;49.078;12.878;2023-04-28T21:54:19;96094.78;;;15.31;37.60
44079;BME280;29744;49.078;12.878;2023-04-28T21:59:19;96102.88;;;15.31;37.37
44079;BME280;29744;49.078;12.878;2023-04-28T22:04:20;96094.00;;;15.30;37.70
44079;BME280;29744;49.078;12.878;2023-04-28T22:09:20;96090.50;;;15.30;37.70
44079;BME280;29744;49.078;12.878;2023-04-28T22:14:21;96101.31;;;15.30;37.47
44079;BME280;29744;49.078;12.878;2023-04-28T22:19:21;96103.22;;;15.29;37.17
44079;BME280;29744;49.078;12.878;2023-04-28T22:24:21;96094.31;;;15.29;37.62
44079;BME280;29744;49.078;12.878;2023-04-28T22:29:22;96102.44;;;15.29;37.33
44079;BME280;29744;49.078;12.878;2023-04-28T22:34:22;96109.75;;;15.28;37.70
44079;BME280;29744;49.078;12.878;2023-04-28T22:39:23;96112.44;;;15.28;37.35
44079;BME280;29744;49.078;12.878;2023-04-28T22:44:26;96107.84;;;15.29;37.48
44079;BME280;29744;49.078;12.878;2023-04-28T22:49:26;96113.22;;;15.29;37.55
44079;BME280;29744;49.078;12.878;2023-04-28T22:54:29;96105.13;;;15.29;37.23
44079;BME280;29744;49.078;12.878;2023-04-28T22:59:31;96103.22;;;15.29;37.77
44079;BME280;29744;49.078;12.878;2023-04-28T23:04:32;96101.63;;;15.28;37.23
44079;BME280;29744;49.078;12.878;2023-04-28T23:09:32;96101.63;;;15.28;37.40
44079;BME280;29744;49.078;12.878;2023-04-28T23:14:35;96107.03;;;15.28;37.32
44079;BME280;29744;49.078;12.878;2023-04-28T23:19:35;96094.66;;;15.27;37.65
44079;BME280;29744;49.078;12.878;2023-04-28T23:24:37;96100.84;;;15.28;37.50
44079;BME280;29744;49.078;12.878;2023-04-28T23:29:38;96096.56;;;15.27;37.28
44079;BME280;29744;49.078;12.878;2023-04-28T23:34:39;96089.25;;;15.27;37.61
44079;BME280;29744;49.078;12.878;2023-04-28T23:39:41;96085.44;;;15.28;37.49
44079;BME280;29744;49.078;12.878;2023-04-28T23:44:41;96074.97;;;15.27;37.61
44079;BME280;29744;49.078;12.878;2023-04-28T23:49:42;96071.13;;;15.28;37.57
44079;BME280;29744;49.078;12.878;2023-04-28T23:54:42;96060.66;;;15.26;37.28
44079;BME280;29744;49.078;12.878;2023-04-28T23:59:42;96053.34;;;15.27;37.23
